My Little Violet — ZCPE7 — position and weather

sailwx.info

Track history (hours):
 
Tides and Currents Weather Stations Pressure Air Temp Water Temp Dewpoint Dewpoint Depression Visibility Wind Speed Wind Dir Waves Ship Positions

My Little Violet

Last reported at 2015-May-22 19:15 UTC. Time now 2015-May-23 05:47 UTC.
Position N 43°44' E 007°26'.

Length 45 m; draft 2.9 m.

Type: Pleasure craft. MMSI: 319496000.

Date/timePositionNaut miles runAvg speedWind from/ knotsBaromVisibWave heightAir tempDewpointWater temp
2015-May-22 19:15N 43°44' E 007°26'0 0.0
2015-May-22 18:33N 43°44' E 007°26'9 1.4
2015-May-22 12:18N 43°36' E 007°26'6 6.2
2015-May-22 11:17N 43°29' E 007°24'810.9
2015-May-22 10:33N 43°30' E 007°13'9 2.8
2015-May-22 07:27N 43°33' E 007°01'0 0.0
2015-May-22 04:33N 43°33' E 007°01'3 1.0
2015-May-22 01:33N 43°30' E 007°02'5 4.2
2015-May-22 00:29N 43°33' E 007°07'0 0.0
2015-May-21 23:29N 43°33' E 007°07'0 0.0
2015-May-21 22:29N 43°33' E 007°07'0 0.0
2015-May-21 21:29N 43°33' E 007°07'0 0.0
2015-May-21 20:29N 43°33' E 007°07'0 0.0
2015-May-21 19:29N 43°33' E 007°07'0 0.0
2015-May-21 18:29N 43°33' E 007°07'0 0.0
2015-May-21 17:29N 43°33' E 007°07'0 0.0
2015-May-21 16:29N 43°33' E 007°07'0 0.1
2015-May-21 15:33N 43°33' E 007°07'5 1.1
2015-May-21 11:33N 43°30' E 007°02'3 2.9
2015-May-21 10:34N 43°33' E 007°03'0 0.0
2015-May-21 09:33N 43°33' E 007°03'0 0.0
2015-May-21 08:33N 43°33' E 007°03'0 0.0
2015-May-21 07:33N 43°33' E 007°03'0 0.0
2015-May-21 06:33N 43°33' E 007°04'0 0.0
2015-May-21 05:33N 43°33' E 007°04'0 0.0
2015-May-21 04:33N 43°33' E 007°03'0 0.0
2015-May-21 03:33N 43°32' E 007°03'0 0.1
2015-May-21 02:33N 43°33' E 007°03'0 0.0
2015-May-21 01:33N 43°33' E 007°04'0 0.1
2015-May-21 00:33N 43°33' E 007°04'0 0.0
2015-May-20 23:33N 43°33' E 007°04'0 0.0
2015-May-20 22:33N 43°33' E 007°04'0 0.0
2015-May-20 21:33N 43°33' E 007°04'0 0.0
2015-May-20 20:33N 43°33' E 007°04'1 1.1
2015-May-20 19:33N 43°32' E 007°03'0 0.0
2015-May-20 18:33N 43°32' E 007°03'0 0.0
2015-May-20 17:33N 43°32' E 007°03'0 0.0
2015-May-20 16:34N 43°32' E 007°03'0 0.0
2015-May-20 15:33N 43°32' E 007°03'0 0.0
2015-May-20 14:33N 43°32' E 007°03'0 0.0
2015-May-20 13:33N 43°32' E 007°03'0 0.0
2015-May-20 12:33N 43°32' E 007°03'0 0.0
2015-May-20 11:29N 43°32' E 007°03'3 3.0
2015-May-20 10:33N 43°33' E 007°07'0 0.0
2015-May-20 09:33N 43°33' E 007°07'0 0.0
2015-May-20 08:33N 43°33' E 007°07'0 0.0
2015-May-20 07:33N 43°33' E 007°07'0 0.0
2015-May-20 06:33N 43°33' E 007°07'0 0.0
2015-May-20 05:33N 43°33' E 007°07'0 0.0
2015-May-20 04:33N 43°33' E 007°07'0 0.0
2015-May-20 03:33N 43°33' E 007°07'0 0.0
2015-May-20 02:33N 43°33' E 007°07'0 0.0
2015-May-20 01:33N 43°33' E 007°07'0 0.0
2015-May-20 00:33N 43°33' E 007°07'0 0.0
2015-May-19 23:33N 43°33' E 007°07'0 0.0
2015-May-19 22:33N 43°33' E 007°07'0 0.0
2015-May-19 21:33N 43°33' E 007°07'0 0.0
2015-May-19 20:33N 43°33' E 007°07'0 0.0
2015-May-19 19:33N 43°33' E 007°07'0 0.0
2015-May-19 18:33N 43°33' E 007°07'0 0.0
2015-May-19 17:33N 43°33' E 007°07'0 0.0
2015-May-19 16:33N 43°33' E 007°07'2 1.5
2015-May-19 15:33N 43°31' E 007°06'3 3.2
2015-May-19 14:34N 43°32' E 007°01'0 0.0
2015-May-19 13:28N 43°32' E 007°01'0 0.0
2015-May-19 12:33N 43°32' E 007°01'0 0.0
2015-May-19 11:32N 43°32' E 007°01'6 6.1
2015-May-19 10:33N 43°33' E 007°10'1211.9
2015-May-19 09:33N 43°41' E 007°22'1 0.9
2015-May-19 08:32N 43°42' E 007°20'0 0.0
2015-May-19 07:34N 43°42' E 007°20'0 0.0
2015-May-19 06:31N 43°42' E 007°20'0 0.0
2015-May-19 05:32N 43°42' E 007°20'0 0.0
2015-May-19 04:30N 43°42' E 007°20'0 0.0
2015-May-19 03:32N 43°42' E 007°20'0 0.0
2015-May-19 02:33N 43°42' E 007°20'0 0.0
2015-May-19 01:32N 43°42' E 007°20'0 0.0
2015-May-19 00:33N 43°42' E 007°20'0 0.0
2015-May-18 23:33N 43°42' E 007°20'0 0.0
2015-May-18 22:33N 43°42' E 007°20'0 0.0
2015-May-18 21:33N 43°42' E 007°20'0 0.0
2015-May-18 20:33N 43°42' E 007°20'0 0.0
2015-May-18 19:33N 43°42' E 007°21'0 0.0
2015-May-18 18:33N 43°42' E 007°21'0 0.0
2015-May-18 17:33N 43°42' E 007°21'5 4.9
2015-May-18 16:33N 43°39' E 007°15'3 3.4
2015-May-18 15:33N 43°39' E 007°11'0 0.0
2015-May-18 14:33N 43°39' E 007°11'0 0.0
2015-May-18 13:33N 43°39' E 007°11'0 0.0
2015-May-18 12:33N 43°39' E 007°11'0 0.0
2015-May-18 11:33N 43°39' E 007°11'0 0.0
2015-May-18 10:33N 43°39' E 007°11'2 1.7
2015-May-18 09:33N 43°38' E 007°12'  
Track history (hours):
 
Tides and Currents Weather Stations Pressure Air Temp Water Temp Dewpoint Dewpoint Depression Visibility Wind Speed Wind Dir Waves Ship Positions

My Little Violet

Last reported at 2015-May-22 19:15 UTC. Time now 2015-May-23 05:47 UTC.
Position N 43°44' E 007°26'.

Length 45 m; draft 2.9 m.

Type: Pleasure craft. MMSI: 319496000.

Date/timePositionNaut miles runAvg speedWind from/ knotsBaromVisibWave heightAir tempDewpointWater temp
2015-May-22 19:15N 43°44' E 007°26'0 0.0
2015-May-22 18:33N 43°44' E 007°26'9 1.4
2015-May-22 12:18N 43°36' E 007°26'6 6.2
2015-May-22 11:17N 43°29' E 007°24'810.9
2015-May-22 10:33N 43°30' E 007°13'9 2.8
2015-May-22 07:27N 43°33' E 007°01'0 0.0
2015-May-22 04:33N 43°33' E 007°01'3 1.0
2015-May-22 01:33N 43°30' E 007°02'5 4.2
2015-May-22 00:29N 43°33' E 007°07'0 0.0
2015-May-21 23:29N 43°33' E 007°07'0 0.0
2015-May-21 22:29N 43°33' E 007°07'0 0.0
2015-May-21 21:29N 43°33' E 007°07'0 0.0
2015-May-21 20:29N 43°33' E 007°07'0 0.0
2015-May-21 19:29N 43°33' E 007°07'0 0.0
2015-May-21 18:29N 43°33' E 007°07'0 0.0
2015-May-21 17:29N 43°33' E 007°07'0 0.0
2015-May-21 16:29N 43°33' E 007°07'0 0.1
2015-May-21 15:33N 43°33' E 007°07'5 1.1
2015-May-21 11:33N 43°30' E 007°02'3 2.9
2015-May-21 10:34N 43°33' E 007°03'0 0.0
2015-May-21 09:33N 43°33' E 007°03'0 0.0
2015-May-21 08:33N 43°33' E 007°03'0 0.0
2015-May-21 07:33N 43°33' E 007°03'0 0.0
2015-May-21 06:33N 43°33' E 007°04'0 0.0
2015-May-21 05:33N 43°33' E 007°04'0 0.0
2015-May-21 04:33N 43°33' E 007°03'0 0.0
2015-May-21 03:33N 43°32' E 007°03'0 0.1
2015-May-21 02:33N 43°33' E 007°03'0 0.0
2015-May-21 01:33N 43°33' E 007°04'0 0.1
2015-May-21 00:33N 43°33' E 007°04'0 0.0
2015-May-20 23:33N 43°33' E 007°04'0 0.0
2015-May-20 22:33N 43°33' E 007°04'0 0.0
2015-May-20 21:33N 43°33' E 007°04'0 0.0
2015-May-20 20:33N 43°33' E 007°04'1 1.1
2015-May-20 19:33N 43°32' E 007°03'0 0.0
2015-May-20 18:33N 43°32' E 007°03'0 0.0
2015-May-20 17:33N 43°32' E 007°03'0 0.0
2015-May-20 16:34N 43°32' E 007°03'0 0.0
2015-May-20 15:33N 43°32' E 007°03'0 0.0
2015-May-20 14:33N 43°32' E 007°03'0 0.0
2015-May-20 13:33N 43°32' E 007°03'0 0.0
2015-May-20 12:33N 43°32' E 007°03'0 0.0
2015-May-20 11:29N 43°32' E 007°03'3 3.0
2015-May-20 10:33N 43°33' E 007°07'0 0.0
2015-May-20 09:33N 43°33' E 007°07'0 0.0
2015-May-20 08:33N 43°33' E 007°07'0 0.0
2015-May-20 07:33N 43°33' E 007°07'0 0.0
2015-May-20 06:33N 43°33' E 007°07'0 0.0
2015-May-20 05:33N 43°33' E 007°07'0 0.0
2015-May-20 04:33N 43°33' E 007°07'0 0.0
2015-May-20 03:33N 43°33' E 007°07'0 0.0
2015-May-20 02:33N 43°33' E 007°07'0 0.0
2015-May-20 01:33N 43°33' E 007°07'0 0.0
2015-May-20 00:33N 43°33' E 007°07'0 0.0
2015-May-19 23:33N 43°33' E 007°07'0 0.0
2015-May-19 22:33N 43°33' E 007°07'0 0.0
2015-May-19 21:33N 43°33' E 007°07'0 0.0
2015-May-19 20:33N 43°33' E 007°07'0 0.0
2015-May-19 19:33N 43°33' E 007°07'0 0.0
2015-May-19 18:33N 43°33' E 007°07'0 0.0
2015-May-19 17:33N 43°33' E 007°07'0 0.0
2015-May-19 16:33N 43°33' E 007°07'2 1.5
2015-May-19 15:33N 43°31' E 007°06'3 3.2
2015-May-19 14:34N 43°32' E 007°01'0 0.0
2015-May-19 13:28N 43°32' E 007°01'0 0.0
2015-May-19 12:33N 43°32' E 007°01'0 0.0
2015-May-19 11:32N 43°32' E 007°01'6 6.1
2015-May-19 10:33N 43°33' E 007°10'1211.9
2015-May-19 09:33N 43°41' E 007°22'1 0.9
2015-May-19 08:32N 43°42' E 007°20'0 0.0
2015-May-19 07:34N 43°42' E 007°20'0 0.0
2015-May-19 06:31N 43°42' E 007°20'0 0.0
2015-May-19 05:32N 43°42' E 007°20'0 0.0
2015-May-19 04:30N 43°42' E 007°20'0 0.0
2015-May-19 03:32N 43°42' E 007°20'0 0.0
2015-May-19 02:33N 43°42' E 007°20'0 0.0
2015-May-19 01:32N 43°42' E 007°20'0 0.0
2015-May-19 00:33N 43°42' E 007°20'0 0.0
2015-May-18 23:33N 43°42' E 007°20'0 0.0
2015-May-18 22:33N 43°42' E 007°20'0 0.0
2015-May-18 21:33N 43°42' E 007°20'0 0.0
2015-May-18 20:33N 43°42' E 007°20'0 0.0
2015-May-18 19:33N 43°42' E 007°21'0 0.0
2015-May-18 18:33N 43°42' E 007°21'0 0.0
2015-May-18 17:33N 43°42' E 007°21'5 4.9
2015-May-18 16:33N 43°39' E 007°15'3 3.4
2015-May-18 15:33N 43°39' E 007°11'0 0.0
2015-May-18 14:33N 43°39' E 007°11'0 0.0
2015-May-18 13:33N 43°39' E 007°11'0 0.0
2015-May-18 12:33N 43°39' E 007°11'0 0.0
2015-May-18 11:33N 43°39' E 007°11'0 0.0
2015-May-18 10:33N 43°39' E 007°11'2 1.7
2015-May-18 09:33N 43°38' E 007°12'  

Dump ship's entire track history